Time;durP1;ratioP1;P1;durP2;ratioP2;P2;SDS_P1;SDS_P2;PMS_P1;PMS_P2;Temp;Humidity;BMP_temperature;BMP_pressure;BME280_temperature;BME280_humidity;BME280_pressure;Samples;Min_cycle;Max_cycle;Signal;HPM_P1;HPM_P2
2021/03/11 00:01:33;;;;;;;30.35;16.55;;;7.00;89.60;;;;;;5112769;28;20094;-73
2021/03/11 00:03:58;;;;;;;22.42;13.45;;;7.10;89.00;;;;;;5112604;28;20047;-73
2021/03/11 00:06:24;;;;;;;39.08;20.75;;;7.10;88.80;;;;;;5114331;28;20044;-73
2021/03/11 00:08:50;;;;;;;33.90;20.40;;;7.20;90.10;;;;;;5116954;28;20035;-73
2021/03/11 00:11:15;;;;;;;24.77;14.98;;;7.10;90.20;;;;;;5115259;28;20191;-73
2021/03/11 00:13:41;;;;;;;34.92;18.48;;;7.20;88.80;;;;;;5116933;28;20329;-73
2021/03/11 00:16:06;;;;;;;28.77;17.33;;;7.20;89.50;;;;;;5115286;28;20102;-73
2021/03/11 00:18:32;;;;;;;27.75;17.95;;;7.20;89.30;;;;;;5116301;28;20016;-73
2021/03/11 00:20:58;;;;;;;25.38;14.70;;;7.20;88.90;;;;;;5115263;28;20468;-73
2021/03/11 00:23:23;;;;;;;33.63;18.55;;;7.20;88.20;;;;;;5116215;28;20523;-74
2021/03/11 00:25:49;;;;;;;24.48;15.88;;;7.20;89.20;;;;;;5115111;28;20045;-74
2021/03/11 00:28:14;;;;;;;30.98;17.27;;;7.20;88.30;;;;;;5114659;28;20413;-72
2021/03/11 00:30:40;;;;;;;32.50;18.13;;;7.20;89.10;;;;;;5114887;28;20344;-73
2021/03/11 00:33:05;;;;;;;30.58;16.30;;;7.20;89.40;;;;;;5114978;28;20161;-73
2021/03/11 00:35:31;;;;;;;31.75;18.50;;;7.20;89.20;;;;;;5114683;28;20016;-73
2021/03/11 00:37:57;;;;;;;27.50;17.85;;;7.20;90.20;;;;;;5116165;28;20016;-74
2021/03/11 00:40:23;;;;;;;33.60;18.45;;;7.20;89.80;;;;;;5114649;28;20345;-73
2021/03/11 00:42:49;;;;;;;32.30;20.65;;;7.20;90.10;;;;;;5115983;28;20046;-73
2021/03/11 00:45:16;;;;;;;25.48;15.02;;;7.20;89.90;;;;;;5115847;28;20098;-73
2021/03/11 00:47:42;;;;;;;26.67;15.88;;;7.20;88.50;;;;;;5116324;28;20092;-73
2021/03/11 00:50:11;;;;;;;27.75;17.88;;;7.20;87.70;;;;;;5116018;28;20223;-73
2021/03/11 00:52:36;;;;;;;31.70;17.80;;;7.30;89.10;;;;;;5114688;28;20054;-73
2021/03/11 00:55:04;;;;;;;27.67;16.23;;;7.30;90.00;;;;;;5114671;28;20047;-73
2021/03/11 00:57:30;;;;;;;28.38;16.90;;;7.30;89.30;;;;;;5115637;28;20086;-73
2021/03/11 00:59:55;;;;;;;29.88;17.13;;;7.30;88.60;;;;;;5116112;28;20062;-74
2021/03/11 01:02:21;;;;;;;26.60;16.35;;;7.40;89.20;;;;;;5115502;28;20016;-72
2021/03/11 01:04:46;;;;;;;26.48;15.95;;;7.30;88.30;;;;;;5115334;28;20024;-73
2021/03/11 01:07:13;;;;;;;22.45;14.63;;;7.40;88.40;;;;;;5115597;28;20093;-72
2021/03/11 01:09:39;;;;;;;29.92;19.58;;;7.40;88.60;;;;;;5115590;27;20027;-73
2021/03/11 01:12:05;;;;;;;30.05;17.40;;;7.40;89.60;;;;;;5114357;28;20337;-73
2021/03/11 01:14:31;;;;;;;32.60;19.50;;;7.40;89.00;;;;;;5115340;28;20098;-72
2021/03/11 01:16:56;;;;;;;26.75;14.95;;;7.40;89.90;;;;;;5113940;28;20493;-73
2021/03/11 01:19:22;;;;;;;26.30;16.20;;;7.50;87.60;;;;;;5114850;28;20050;-73
2021/03/11 01:21:48;;;;;;;33.00;18.20;;;7.50;88.00;;;;;;5115087;28;20047;-73
2021/03/11 01:24:13;;;;;;;28.88;18.45;;;7.50;88.70;;;;;;5115116;28;20416;-73
2021/03/11 01:26:39;;;;;;;29.45;17.52;;;7.50;89.20;;;;;;5115371;28;20024;-72
2021/03/11 01:29:04;;;;;;;28.40;18.67;;;7.60;89.40;;;;;;5115421;28;20019;-73
2021/03/11 01:31:30;;;;;;;25.33;16.85;;;7.50;90.00;;;;;;5113920;28;20019;-73
2021/03/11 01:33:56;;;;;;;31.48;18.83;;;7.60;89.00;;;;;;5115185;28;20095;-73
2021/03/11 01:36:22;;;;;;;20.90;13.98;;;7.60;89.70;;;;;;5113593;28;20023;-73
2021/03/11 01:38:47;;;;;;;28.60;20.65;;;7.60;88.70;;;;;;5115079;28;20043;-73
2021/03/11 01:41:13;;;;;;;29.45;18.33;;;7.60;90.10;;;;;;5115339;27;20100;-72
2021/03/11 01:43:39;;;;;;;27.65;16.58;;;7.60;90.30;;;;;;5113673;28;20479;-73
2021/03/11 01:46:04;;;;;;;26.50;17.35;;;7.60;90.10;;;;;;5113658;28;20459;-73
2021/03/11 01:48:30;;;;;;;36.45;22.70;;;7.60;90.50;;;;;;5114606;28;20077;-73
2021/03/11 01:50:55;;;;;;;28.73;17.05;;;7.60;90.60;;;;;;5114476;28;20047;-74
2021/03/11 01:53:21;;;;;;;25.02;17.63;;;7.50;90.20;;;;;;5114258;28;20418;-72
2021/03/11 01:55:47;;;;;;;25.58;17.48;;;7.60;90.30;;;;;;5114488;28;20024;-73
2021/03/11 01:58:13;;;;;;;27.15;16.73;;;7.60;90.00;;;;;;5114406;28;20019;-73
2021/03/11 02:00:38;;;;;;;25.90;16.35;;;7.60;90.60;;;;;;5114388;28;20114;-73
2021/03/11 02:03:04;;;;;;;18.60;10.93;;;7.60;90.40;;;;;;5114538;28;20065;-73
2021/03/11 02:05:30;;;;;;;25.38;17.60;;;7.60;88.80;;;;;;5114048;28;20130;-74
2021/03/11 02:07:56;;;;;;;27.15;16.75;;;7.60;90.60;;;;;;5114516;28;20054;-73
2021/03/11 02:10:24;;;;;;;27.38;16.63;;;7.60;90.50;;;;;;5112830;28;20023;-72
2021/03/11 02:13:20;;;;;;;26.73;17.52;;;7.60;90.90;;;;;;5114438;28;20023;-72
2021/03/11 02:16:06;;;;;;;23.25;15.10;;;7.60;90.50;;;;;;5114377;28;20452;-73
2021/03/11 02:18:47;;;;;;;23.50;15.07;;;7.70;90.40;;;;;;5114136;28;20015;-72
2021/03/11 02:21:25;;;;;;;26.45;15.18;;;7.70;90.30;;;;;;5113959;28;20390;-73
2021/03/11 02:24:14;;;;;;;21.70;14.80;;;7.70;90.60;;;;;;5114164;28;20069;-73
2021/03/11 02:26:46;;;;;;;21.38;13.43;;;7.70;90.80;;;;;;5113881;28;20051;-73
2021/03/11 02:29:33;;;;;;;24.45;14.40;;;7.70;90.10;;;;;;5113259;27;20039;-73
2021/03/11 02:32:02;;;;;;;25.55;16.67;;;7.70;90.40;;;;;;5113463;28;20423;-73
2021/03/11 02:34:35;;;;;;;22.10;13.15;;;7.70;90.90;;;;;;5113803;28;20443;-73
2021/03/11 02:37:21;;;;;;;21.90;13.65;;;7.70;90.10;;;;;;5112563;28;20046;-73
2021/03/11 02:40:04;;;;;;;24.35;15.45;;;7.70;90.20;;;;;;5114271;28;20023;-73
2021/03/11 02:42:32;;;;;;;18.10;13.38;;;7.70;90.80;;;;;;5113516;28;20375;-73
2021/03/11 02:44:58;;;;;;;28.92;14.50;;;7.70;90.60;;;;;;5113861;28;20016;-72
2021/03/11 02:47:25;;;;;;;22.23;16.30;;;7.70;90.40;;;;;;5113247;28;20448;-72
2021/03/11 02:49:52;;;;;;;19.45;12.23;;;7.70;91.50;;;;;;5113886;28;20069;-73
2021/03/11 02:52:19;;;;;;;22.70;13.50;;;7.70;90.40;;;;;;5113470;28;20023;-73
2021/03/11 02:54:45;;;;;;;17.52;10.80;;;7.70;90.90;;;;;;5112355;28;20424;-73
2021/03/11 02:57:15;;;;;;;19.95;11.30;;;7.70;90.20;;;;;;5113379;28;20019;-73
2021/03/11 02:59:41;;;;;;;16.05;11.55;;;7.80;90.00;;;;;;5113373;28;20023;-73
2021/03/11 03:02:08;;;;;;;16.80;10.50;;;7.80;90.30;;;;;;5113441;28;20022;-73
2021/03/11 03:04:35;;;;;;;12.20;7.43;;;7.80;90.80;;;;;;5112881;28;20364;-73
2021/03/11 03:07:02;;;;;;;16.75;11.52;;;7.80;89.10;;;;;;5112950;28;20039;-72
2021/03/11 03:09:28;;;;;;;18.30;12.50;;;7.80;90.60;;;;;;5113075;28;20019;-73
2021/03/11 03:11:56;;;;;;;18.27;11.75;;;7.80;90.80;;;;;;5112171;28;20318;-72
2021/03/11 03:14:22;;;;;;;20.20;14.55;;;7.90;90.00;;;;;;5111720;28;20011;-72
2021/03/11 03:16:49;;;;;;;21.27;13.48;;;7.90;91.40;;;;;;5112006;28;20012;-73
2021/03/11 03:19:15;;;;;;;17.30;11.65;;;7.90;90.90;;;;;;5111867;28;20015;-73
2021/03/11 03:21:45;;;;;;;17.55;13.45;;;7.90;90.80;;;;;;5112942;28;20027;-73
2021/03/11 03:24:13;;;;;;;16.10;9.98;;;8.00;92.10;;;;;;5111829;28;20064;-73
2021/03/11 03:26:39;;;;;;;16.90;11.88;;;7.90;90.50;;;;;;5112813;28;20026;-73
2021/03/11 03:29:06;;;;;;;16.70;11.32;;;8.00;90.40;;;;;;5111555;28;20027;-73
2021/03/11 03:31:32;;;;;;;18.08;12.18;;;8.00;90.70;;;;;;5112784;28;20019;-73
2021/03/11 03:33:57;;;;;;;17.40;13.02;;;8.00;91.50;;;;;;5111380;28;20015;-73
2021/03/11 03:36:23;;;;;;;19.23;13.93;;;8.00;91.50;;;;;;5112964;28;20022;-73
2021/03/11 03:38:48;;;;;;;15.65;9.02;;;8.00;90.40;;;;;;5112145;28;20421;-73
2021/03/11 03:41:16;;;;;;;18.95;11.75;;;8.00;89.70;;;;;;5112045;28;20448;-74
2021/03/11 03:43:44;;;;;;;16.25;11.23;;;8.10;91.20;;;;;;5111232;28;20408;-73
2021/03/11 03:46:11;;;;;;;19.17;13.40;;;8.10;91.30;;;;;;5111584;28;20367;-74
2021/03/11 03:48:43;;;;;;;23.73;12.75;;;8.10;91.50;;;;;;5112420;28;20043;-73
2021/03/11 03:51:10;;;;;;;17.85;12.15;;;8.10;92.00;;;;;;5111302;28;20371;-74
2021/03/11 03:53:48;;;;;;;17.98;12.05;;;8.10;92.50;;;;;;5112572;28;20030;-74
2021/03/11 03:56:28;;;;;;;16.23;10.45;;;8.10;92.20;;;;;;5111069;28;20107;-74
2021/03/11 03:58:57;;;;;;;20.30;13.85;;;8.10;91.60;;;;;;5112497;28;20041;-74
2021/03/11 04:01:27;;;;;;;17.98;13.20;;;8.10;92.00;;;;;;5111073;28;20440;-74
2021/03/11 04:03:54;;;;;;;17.58;11.50;;;8.20;91.00;;;;;;5112654;28;20024;-74
2021/03/11 04:06:20;;;;;;;22.38;15.57;;;8.20;91.50;;;;;;5110961;28;20085;-74
2021/03/11 04:08:47;;;;;;;18.05;10.70;;;8.20;91.90;;;;;;5110907;28;20397;-74
2021/03/11 04:11:15;;;;;;;20.17;14.30;;;8.20;91.10;;;;;;5112689;28;20016;-74
2021/03/11 04:13:42;;;;;;;18.45;12.35;;;8.20;91.70;;;;;;5112338;28;20011;-73
2021/03/11 04:16:08;;;;;;;14.45;9.70;;;8.20;91.40;;;;;;5112302;28;20043;-73
2021/03/11 04:18:34;;;;;;;14.52;9.98;;;8.20;90.90;;;;;;5112296;28;20025;-74
2021/03/11 04:21:01;;;;;;;20.75;13.80;;;8.30;90.80;;;;;;5112275;28;20031;-74
2021/03/11 04:23:27;;;;;;;18.23;12.93;;;8.30;91.60;;;;;;5112318;28;20030;-73
2021/03/11 04:25:53;;;;;;;16.70;11.55;;;8.30;91.50;;;;;;5111102;28;20012;-74
2021/03/11 04:28:18;;;;;;;20.48;13.45;;;8.40;92.00;;;;;;5112297;28;20030;-72
2021/03/11 04:30:44;;;;;;;19.35;11.55;;;8.40;91.70;;;;;;5111737;28;20020;-73
2021/03/11 04:33:12;;;;;;;17.27;11.80;;;8.40;92.00;;;;;;5111068;28;20023;-73
2021/03/11 04:35:38;;;;;;;17.30;10.10;;;8.40;91.90;;;;;;5112175;28;20019;-73
2021/03/11 04:38:05;;;;;;;17.35;11.27;;;8.40;90.60;;;;;;5112329;28;20081;-73
2021/03/11 04:40:31;;;;;;;21.40;13.93;;;8.50;91.60;;;;;;5111953;28;20026;-73
2021/03/11 04:42:57;;;;;;;22.08;14.70;;;8.40;91.70;;;;;;5112309;28;20092;-73
2021/03/11 04:45:22;;;;;;;20.08;13.80;;;8.50;91.70;;;;;;5110942;28;20020;-73
2021/03/11 04:47:48;;;;;;;15.13;10.07;;;8.50;90.80;;;;;;5112415;28;20016;-74
2021/03/11 04:50:15;;;;;;;19.52;12.40;;;8.50;89.80;;;;;;5110895;28;20028;-74
2021/03/11 04:52:41;;;;;;;21.08;13.38;;;8.60;90.40;;;;;;5115587;28;20024;-74
2021/03/11 04:55:07;;;;;;;17.63;12.68;;;8.70;90.90;;;;;;5116302;28;20042;-74
2021/03/11 04:57:33;;;;;;;13.50;9.10;;;8.60;91.20;;;;;;5115623;28;20026;-73
2021/03/11 05:00:01;;;;;;;20.35;14.18;;;8.70;90.80;;;;;;5114535;28;20028;-74
2021/03/11 05:02:30;;;;;;;20.73;14.95;;;8.70;92.10;;;;;;5114307;28;20046;-74
2021/03/11 05:04:57;;;;;;;22.10;14.73;;;8.70;91.40;;;;;;5114317;28;20095;-74
2021/03/11 05:07:23;;;;;;;19.67;13.80;;;8.80;90.30;;;;;;5115306;28;20051;-74
2021/03/11 05:09:48;;;;;;;21.08;14.93;;;8.80;90.90;;;;;;5114090;28;20028;-74
2021/03/11 05:12:14;;;;;;;21.23;14.68;;;8.80;91.30;;;;;;5114407;28;20046;-73
2021/03/11 05:14:39;;;;;;;18.25;11.93;;;8.90;91.90;;;;;;5115331;28;20020;-74
2021/03/11 05:17:05;;;;;;;24.27;14.88;;;8.90;91.00;;;;;;5114261;28;20115;-73
2021/03/11 05:19:30;;;;;;;20.02;13.45;;;8.90;91.20;;;;;;5113885;28;20467;-73
2021/03/11 05:21:56;;;;;;;20.05;11.82;;;9.00;90.70;;;;;;5115812;28;20016;-73
2021/03/11 05:24:22;;;;;;;17.38;11.95;;;9.00;91.30;;;;;;5114042;28;20068;-74
2021/03/11 05:26:47;;;;;;;24.83;15.70;;;9.00;88.90;;;;;;5115107;28;20032;-73
2021/03/11 05:29:13;;;;;;;19.13;12.60;;;9.00;91.90;;;;;;5113732;28;20455;-73
2021/03/11 05:31:38;;;;;;;17.63;11.52;;;9.10;90.60;;;;;;5114978;28;20038;-73
2021/03/11 05:34:04;;;;;;;17.77;11.50;;;9.10;89.10;;;;;;5113880;28;20094;-73
2021/03/11 05:36:29;;;;;;;20.50;11.48;;;9.20;90.20;;;;;;5113661;28;20022;-73
2021/03/11 05:38:55;;;;;;;20.45;13.15;;;9.20;90.20;;;;;;5115105;28;20020;-73
2021/03/11 05:41:22;;;;;;;20.05;12.25;;;9.30;90.80;;;;;;5113391;28;20027;-72
2021/03/11 05:43:50;;;;;;;20.60;13.15;;;9.30;90.40;;;;;;5113201;28;20068;-74
2021/03/11 05:46:17;;;;;;;19.63;12.95;;;9.30;90.90;;;;;;5114722;28;20142;-73
2021/03/11 05:48:44;;;;;;;19.10;12.57;;;9.30;90.90;;;;;;5114431;28;20023;-73
2021/03/11 05:51:10;;;;;;;14.82;8.45;;;9.30;91.10;;;;;;5114888;28;20196;-73
2021/03/11 05:53:37;;;;;;;22.40;13.93;;;9.20;87.30;;;;;;5114515;28;20173;-73
2021/03/11 05:56:03;;;;;;;22.45;14.02;;;9.20;91.20;;;;;;5114539;28;20072;-73
2021/03/11 05:58:28;;;;;;;21.80;13.55;;;9.30;90.90;;;;;;5112877;28;20023;-74
2021/03/11 06:00:54;;;;;;;13.30;8.98;;;9.20;90.70;;;;;;5112976;28;20016;-73
2021/03/11 06:03:24;;;;;;;21.33;12.90;;;9.20;89.00;;;;;;5113485;28;20073;-74
2021/03/11 06:05:50;;;;;;;20.90;14.23;;;9.30;91.30;;;;;;5112393;28;20071;-74
2021/03/11 06:08:22;;;;;;;17.95;10.82;;;9.30;91.70;;;;;;5113226;28;20032;-73
2021/03/11 06:10:52;;;;;;;18.50;10.82;;;9.30;90.60;;;;;;5112612;28;20019;-74
2021/03/11 06:13:17;;;;;;;18.67;10.18;;;9.30;91.40;;;;;;5114532;28;20023;-74
2021/03/11 06:15:44;;;;;;;19.10;12.70;;;9.40;90.20;;;;;;5113602;28;20038;-74
2021/03/11 06:18:10;;;;;;;20.17;11.10;;;9.40;91.70;;;;;;5114109;28;20016;-74
2021/03/11 06:20:36;;;;;;;14.40;8.68;;;9.50;90.40;;;;;;5112483;28;20020;-73
2021/03/11 06:23:02;;;;;;;18.08;11.10;;;9.50;89.50;;;;;;5112632;28;20527;-74
2021/03/11 06:25:28;;;;;;;15.55;10.73;;;9.50;90.30;;;;;;5113933;28;20015;-73
2021/03/11 06:27:54;;;;;;;16.17;8.27;;;9.50;90.80;;;;;;5112264;28;20106;-74
2021/03/11 06:30:34;;;;;;;15.57;7.95;;;9.50;88.80;;;;;;5113506;28;20111;-73
2021/03/11 06:33:01;;;;;;;19.75;11.25;;;9.60;86.30;;;;;;5112528;28;20028;-74
2021/03/11 06:35:28;;;;;;;17.38;11.43;;;9.60;90.40;;;;;;5114217;28;20019;-75
2021/03/11 06:37:54;;;;;;;15.82;11.00;;;9.70;91.00;;;;;;5112455;28;20015;-73
2021/03/11 06:40:25;;;;;;;19.27;8.98;;;9.70;90.40;;;;;;5112649;28;20027;-73
2021/03/11 06:42:52;;;;;;;16.35;9.18;;;9.80;89.00;;;;;;5113700;28;20049;-74
2021/03/11 06:45:28;;;;;;;17.15;9.63;;;9.90;90.00;;;;;;5113840;28;20030;-73
2021/03/11 06:48:26;;;;;;;13.45;6.88;;;9.90;89.80;;;;;;5113554;28;20023;-73
2021/03/11 06:50:56;;;;;;;14.43;9.65;;;10.00;88.70;;;;;;5112111;28;20439;-74
2021/03/11 06:53:22;;;;;;;14.27;6.80;;;10.00;90.00;;;;;;5112256;28;20023;-73
2021/03/11 06:55:48;;;;;;;15.48;8.98;;;10.10;86.20;;;;;;5112024;28;20046;-74
2021/03/11 06:58:21;;;;;;;17.63;10.32;;;10.10;89.50;;;;;;5113574;28;20058;-74
2021/03/11 07:00:48;;;;;;;14.25;7.97;;;10.10;88.00;;;;;;5113340;28;20020;-74
2021/03/11 07:03:14;;;;;;;12.73;8.48;;;10.20;88.70;;;;;;5111919;28;20022;-73
2021/03/11 07:05:44;;;;;;;16.02;9.43;;;10.20;87.90;;;;;;5112883;28;20039;-74
2021/03/11 07:08:14;;;;;;;14.80;9.23;;;10.20;89.80;;;;;;5113276;28;20019;-74
2021/03/11 07:10:43;;;;;;;15.02;7.95;;;10.20;90.20;;;;;;5111844;28;20062;-74
2021/03/11 07:13:09;;;;;;;13.38;7.55;;;10.20;87.60;;;;;;5112019;28;20058;-73
2021/03/11 07:15:36;;;;;;;13.23;7.55;;;10.20;89.70;;;;;;5112653;28;20047;-73
2021/03/11 07:18:06;;;;;;;12.95;7.28;;;10.20;88.40;;;;;;5113183;28;20050;-73
2021/03/11 07:20:33;;;;;;;12.43;6.65;;;10.30;87.30;;;;;;5111612;28;20463;-74
2021/03/11 07:23:02;;;;;;;12.00;6.40;;;10.40;88.00;;;;;;5113115;28;20024;-73
2021/03/11 07:25:32;;;;;;;10.60;5.88;;;10.40;86.50;;;;;;5111523;28;20367;-74
2021/03/11 07:27:59;;;;;;;;;;;10.50;86.50;;;;;;5111883;28;20460;-74
2021/03/11 07:30:26;;;;;;;14.10;5.68;;;10.70;84.30;;;;;;5112940;28;19904;-74
2021/03/11 07:33:02;;;;;;;8.85;4.30;;;10.90;83.80;;;;;;5111320;28;20034;-74
2021/03/11 07:35:30;;;;;;;12.73;4.90;;;11.00;81.80;;;;;;5112837;28;20026;-72
2021/03/11 07:37:58;;;;;;;12.65;3.88;;;11.20;81.50;;;;;;5111410;28;20020;-73
2021/03/11 07:40:25;;;;;;;15.60;4.05;;;11.30;79.90;;;;;;5111546;28;20076;-73
2021/03/11 07:42:51;;;;;;;14.57;4.68;;;11.40;77.40;;;;;;5112595;28;20023;-73
2021/03/11 07:45:17;;;;;;;14.93;4.78;;;11.60;78.30;;;;;;5112827;28;20020;-73
2021/03/11 07:47:43;;;;;;;14.10;4.60;;;11.70;78.10;;;;;;5111413;28;20466;-73
2021/03/11 07:50:12;;;;;;;16.30;5.70;;;11.80;77.90;;;;;;5111964;28;20020;-72
2021/03/11 07:52:38;;;;;;;12.68;4.30;;;11.90;77.20;;;;;;5112942;28;20019;-72
2021/03/11 07:55:06;;;;;;;11.93;4.82;;;11.90;77.20;;;;;;5111576;28;20115;-73
2021/03/11 07:57:37;;;;;;;11.65;4.15;;;11.90;77.30;;;;;;5112643;28;20018;-73
2021/03/11 08:00:06;;;;;;;;;;;12.00;77.20;;;;;;5113250;28;20020;-74
2021/03/11 08:02:33;;;;;;;12.73;3.97;;;12.10;78.10;;;;;;5088433;28;19916;-74
2021/03/11 08:04:59;;;;;;;8.93;4.07;;;12.00;78.00;;;;;;5098882;28;20016;-75
2021/03/11 08:07:26;;;;;;;7.90;3.40;;;11.90;78.80;;;;;;5090135;28;20040;-74
2021/03/11 08:09:53;;;;;;;11.15;3.60;;;11.80;77.20;;;;;;5106960;28;20474;-74
2021/03/11 08:12:40;;;;;;;11.77;3.85;;;11.70;76.90;;;;;;5106616;28;20510;-74
2021/03/11 08:15:26;;;;;;;12.18;2.92;;;11.70;77.20;;;;;;5102329;28;20211;-74
2021/03/11 08:17:54;;;;;;;14.90;3.33;;;11.80;76.40;;;;;;5079070;28;20081;-73
2021/03/11 08:20:19;;;;;;;10.80;3.45;;;11.80;76.20;;;;;;5106465;28;20020;-74
2021/03/11 08:22:51;;;;;;;14.32;3.08;;;11.90;75.60;;;;;;5097799;28;20336;-74
2021/03/11 08:25:32;;;;;;;10.02;3.35;;;12.00;74.50;;;;;;5099975;28;20024;-74
2021/03/11 08:27:59;;;;;;;11.38;2.75;;;12.10;72.80;;;;;;5102874;28;20059;-74
2021/03/11 08:30:39;;;;;;;14.00;3.42;;;12.20;73.40;;;;;;5095596;28;20118;-74
2021/03/11 08:33:09;;;;;;;10.15;3.05;;;12.30;73.20;;;;;;5104271;28;20042;-74
2021/03/11 08:35:41;;;;;;;11.88;2.78;;;12.30;71.20;;;;;;5116774;28;20440;-74
2021/03/11 08:38:32;;;;;;;15.35;3.65;;;12.40;70.20;;;;;;5114450;28;20094;-74
2021/03/11 08:40:58;;;;;;;;;;;12.50;70.90;;;;;;5114921;28;20024;-74
2021/03/11 08:43:43;;;;;;;18.42;4.07;;;12.60;68.70;;;;;;5116056;28;20354;-74
2021/03/11 08:46:17;;;;;;;15.38;3.33;;;12.50;67.60;;;;;;5114404;28;20024;-74
2021/03/11 08:48:44;;;;;;;17.67;3.83;;;12.60;68.40;;;;;;5114325;28;20011;-73
2021/03/11 08:51:32;;;;;;;16.63;3.05;;;12.60;67.50;;;;;;5114411;28;20027;-73
2021/03/11 08:54:06;;;;;;;16.90;4.15;;;12.60;68.10;;;;;;5109810;28;20039;-73
2021/03/11 08:56:34;;;;;;;18.35;4.88;;;12.50;68.40;;;;;;5114326;28;20430;-73
2021/03/11 08:59:08;;;;;;;19.73;3.70;;;12.50;67.80;;;;;;5110447;28;20061;-72
2021/03/11 09:01:54;;;;;;;21.50;3.63;;;12.40;68.30;;;;;;5114244;28;20360;-73
2021/03/11 09:04:20;;;;;;;16.38;3.20;;;12.40;68.70;;;;;;5115455;28;20024;-74
2021/03/11 09:06:58;;;;;;;21.90;4.88;;;12.40;67.70;;;;;;5115072;28;20130;-73
2021/03/11 09:09:45;;;;;;;19.17;4.38;;;12.50;66.80;;;;;;5115233;28;20379;-75
2021/03/11 09:12:16;;;;;;;20.35;4.22;;;12.50;66.60;;;;;;5114284;28;20033;-74
2021/03/11 09:14:48;;;;;;;28.15;5.80;;;12.50;66.90;;;;;;5113940;28;20015;-74
2021/03/11 09:17:19;;;;;;;19.85;3.75;;;12.40;66.50;;;;;;5115147;27;20020;-74
2021/03/11 09:19:47;;;;;;;21.33;5.72;;;12.40;66.80;;;;;;5115124;28;20019;-75
2021/03/11 09:22:49;;;;;;;23.20;4.93;;;12.40;66.90;;;;;;5115204;28;20019;-74
2021/03/11 09:25:23;;;;;;;23.25;4.43;;;12.40;67.90;;;;;;5106771;28;20552;-74
2021/03/11 09:28:03;;;;;;;23.17;4.63;;;12.50;65.30;;;;;;5113599;28;20020;-74
2021/03/11 09:30:37;;;;;;;28.15;5.93;;;12.60;67.80;;;;;;5114199;28;20161;-74
2021/03/11 09:33:09;;;;;;;19.67;5.75;;;12.60;66.30;;;;;;5114848;28;20355;-75
2021/03/11 09:35:34;;;;;;;23.65;5.60;;;12.60;65.20;;;;;;5115080;28;20065;-75
2021/03/11 09:38:02;;;;;;;28.67;7.47;;;12.60;65.00;;;;;;5113325;28;20108;-75
2021/03/11 09:40:45;;;;;;;26.95;6.07;;;12.60;62.00;;;;;;5115316;28;20023;-75
2021/03/11 09:43:14;;;;;;;22.75;5.22;;;12.60;63.00;;;;;;5115384;28;20135;-73
2021/03/11 09:46:01;;;;;;;30.40;6.28;;;12.60;62.70;;;;;;5114929;28;20027;-73
2021/03/11 09:48:35;;;;;;;26.02;5.30;;;12.60;62.70;;;;;;5114923;28;20417;-74
2021/03/11 09:51:16;;;;;;;31.80;6.50;;;12.60;61.70;;;;;;5114535;28;20566;-75
2021/03/11 09:53:45;;;;;;;24.55;5.05;;;12.60;62.40;;;;;;5113520;28;20035;-74
2021/03/11 09:56:25;;;;;;;24.77;6.30;;;12.60;63.20;;;;;;5113352;28;20460;-73
2021/03/11 09:59:00;;;;;;;25.60;5.78;;;12.50;62.80;;;;;;5113040;28;20012;-73
2021/03/11 10:01:31;;;;;;;25.75;4.80;;;12.50;62.90;;;;;;5114690;28;20027;-73
2021/03/11 10:03:58;;;;;;;23.58;5.25;;;12.50;62.50;;;;;;5112839;28;20143;-73
2021/03/11 10:06:25;;;;;;;25.45;5.45;;;12.50;63.60;;;;;;5114078;28;20487;-74
2021/03/11 10:08:58;;;;;;;25.77;4.43;;;12.40;62.10;;;;;;5112585;28;20016;-74
2021/03/11 10:11:30;;;;;;;28.40;5.55;;;12.30;62.60;;;;;;5112889;28;20090;-73
2021/03/11 10:14:02;;;;;;;29.45;5.43;;;12.30;62.70;;;;;;5112830;28;20008;-73
2021/03/11 10:16:31;;;;;;;31.08;7.30;;;12.30;63.10;;;;;;5114262;28;20076;-73
2021/03/11 10:19:26;;;;;;;25.05;5.25;;;12.30;63.20;;;;;;5112731;28;20072;-74
2021/03/11 10:21:55;;;;;;;26.05;5.68;;;12.30;64.10;;;;;;5112565;28;20443;-74
2021/03/11 10:24:42;;;;;;;23.35;4.90;;;12.30;62.60;;;;;;5112617;28;20023;-73
2021/03/11 10:27:24;;;;;;;27.27;5.90;;;12.30;63.50;;;;;;5112793;28;20482;-74
2021/03/11 10:30:10;;;;;;;27.08;4.30;;;12.30;63.20;;;;;;5113458;28;20111;-75
2021/03/11 10:32:38;;;;;;;27.45;5.18;;;12.30;64.20;;;;;;5114018;28;20020;-73
2021/03/11 10:35:06;;;;;;;33.70;6.57;;;12.30;63.70;;;;;;5113492;28;20032;-73
2021/03/11 10:37:40;;;;;;;25.08;4.70;;;12.30;63.70;;;;;;5112542;28;20027;-72
2021/03/11 10:40:07;;;;;;;25.77;4.68;;;12.30;64.50;;;;;;5112288;28;20398;-74
2021/03/11 10:42:56;;;;;;;31.02;4.93;;;12.20;64.50;;;;;;5112518;28;20072;-74
2021/03/11 10:45:25;;;;;;;21.45;5.00;;;12.20;65.50;;;;;;5112388;28;20012;-74
2021/03/11 10:48:05;;;;;;;23.47;5.77;;;12.30;64.10;;;;;;5112109;28;20016;-74
2021/03/11 10:50:38;;;;;;;22.17;4.75;;;12.30;64.00;;;;;;5113152;28;20030;-74
2021/03/11 10:53:04;;;;;;;32.72;6.53;;;12.30;64.90;;;;;;5111753;28;20054;-74
2021/03/11 10:55:33;;;;;;;21.70;4.65;;;12.30;64.50;;;;;;5111760;28;20055;-75
2021/03/11 10:58:01;;;;;;;27.67;4.47;;;12.30;64.60;;;;;;5113541;28;20061;-74
2021/03/11 11:00:32;;;;;;;28.63;6.13;;;12.30;63.90;;;;;;5099553;28;20456;-75
2021/03/11 11:03:00;;;;;;;24.98;4.13;;;12.30;64.00;;;;;;5092922;28;20027;-74
2021/03/11 11:05:27;;;;;;;25.73;6.30;;;12.30;64.20;;;;;;5091361;28;20359;-75
2021/03/11 11:07:52;;;;;;;26.45;5.70;;;12.30;65.00;;;;;;5093008;28;20407;-75
2021/03/11 11:10:20;;;;;;;25.95;5.15;;;12.30;65.50;;;;;;5091376;28;20111;-75
2021/03/11 11:12:46;;;;;;;35.22;6.63;;;12.20;65.40;;;;;;5092704;28;20099;-75
2021/03/11 11:15:13;;;;;;;30.77;5.95;;;12.20;65.40;;;;;;5090528;28;20554;-74
2021/03/11 11:17:38;;;;;;;21.15;4.57;;;12.10;66.10;;;;;;5091095;28;20020;-74
2021/03/11 11:20:06;;;;;;;28.63;5.75;;;12.10;66.20;;;;;;5091101;28;20030;-75
2021/03/11 11:22:33;;;;;;;28.35;5.90;;;12.10;66.20;;;;;;5091241;28;20016;-75
2021/03/11 11:24:59;;;;;;;24.90;6.20;;;12.10;66.50;;;;;;5090939;28;20016;-74
2021/03/11 11:27:25;;;;;;;29.13;5.43;;;12.00;67.30;;;;;;5090682;28;20016;-75
2021/03/11 11:29:50;;;;;;;23.88;6.53;;;12.00;67.70;;;;;;5092243;28;20035;-74
2021/03/11 11:32:16;;;;;;;23.60;3.83;;;12.00;64.90;;;;;;5091134;28;20024;-74
2021/03/11 11:34:41;;;;;;;21.98;4.47;;;12.10;66.00;;;;;;5091171;28;20141;-74
2021/03/11 11:37:07;;;;;;;22.77;5.00;;;12.20;64.40;;;;;;5091549;28;20043;-73
2021/03/11 11:39:33;;;;;;;21.35;4.53;;;12.20;64.70;;;;;;5090492;28;20012;-75
2021/03/11 11:41:59;;;;;;;24.90;5.07;;;12.20;64.10;;;;;;5090168;28;20411;-75
2021/03/11 11:44:24;;;;;;;24.58;5.45;;;12.20;64.10;;;;;;5091769;28;20024;-75
2021/03/11 11:46:50;;;;;;;20.75;4.75;;;12.20;65.80;;;;;;5090695;28;20027;-75
2021/03/11 11:49:15;;;;;;;18.25;4.18;;;12.20;65.20;;;;;;5092249;28;20454;-74
2021/03/11 11:51:41;;;;;;;21.25;5.35;;;12.20;65.40;;;;;;5090987;28;20012;-73
2021/03/11 11:54:07;;;;;;;19.50;3.35;;;12.20;64.60;;;;;;5091821;28;20073;-74
2021/03/11 11:56:32;;;;;;;24.35;5.43;;;12.30;64.80;;;;;;5092150;28;20099;-74
2021/03/11 11:58:58;;;;;;;26.92;5.50;;;12.20;64.30;;;;;;5090844;28;20023;-75
2021/03/11 12:01:24;;;;;;;25.95;5.68;;;12.30;64.10;;;;;;5094307;28;20049;-75
2021/03/11 12:03:50;;;;;;;23.10;4.45;;;12.30;64.40;;;;;;5095056;28;20012;-75
2021/03/11 12:06:16;;;;;;;17.67;4.22;;;12.30;63.90;;;;;;5094790;28;20036;-75
2021/03/11 12:08:41;;;;;;;27.92;4.78;;;12.30;63.20;;;;;;5095275;28;20020;-74
2021/03/11 12:11:07;;;;;;;23.77;3.88;;;12.30;63.80;;;;;;5094817;28;20027;-74
2021/03/11 12:13:34;;;;;;;23.70;3.50;;;12.30;64.10;;;;;;5096148;28;20035;-74
2021/03/11 12:16:00;;;;;;;22.27;4.70;;;12.30;63.30;;;;;;5096360;28;20055;-73
2021/03/11 12:18:26;;;;;;;20.95;3.50;;;12.40;63.50;;;;;;5096073;28;20051;-75
2021/03/11 12:20:52;;;;;;;15.93;4.13;;;12.40;65.10;;;;;;5094423;28;20024;-74
2021/03/11 12:23:18;;;;;;;15.43;3.95;;;12.40;61.80;;;;;;5095953;28;20379;-74
2021/03/11 12:25:44;;;;;;;29.23;4.45;;;12.40;63.20;;;;;;5094919;28;20016;-74
2021/03/11 12:28:09;;;;;;;25.85;5.40;;;12.40;62.20;;;;;;5095816;28;20109;-73
2021/03/11 12:30:35;;;;;;;27.70;4.80;;;12.30;62.30;;;;;;5096026;28;20024;-74
2021/03/11 12:33:01;;;;;;;18.92;4.57;;;12.30;62.90;;;;;;5094613;28;20436;-74
2021/03/11 12:35:27;;;;;;;18.27;4.32;;;12.30;62.80;;;;;;5094619;28;20020;-74
2021/03/11 12:37:54;;;;;;;20.73;4.10;;;12.40;62.80;;;;;;5094104;28;20016;-74
2021/03/11 12:40:20;;;;;;;22.10;3.85;;;12.40;63.10;;;;;;5095729;28;20024;-74
2021/03/11 12:42:47;;;;;;;22.08;3.95;;;12.60;63.00;;;;;;5094510;28;20027;-75
2021/03/11 12:45:17;;;;;;;21.40;4.10;;;12.70;62.30;;;;;;5094702;28;20349;-74
2021/03/11 12:47:43;;;;;;;;;;;12.80;62.20;;;;;;5096168;28;20043;-73